This is the latest recevied weather packets stored in our database for station/object N5PRN. If no packets are shown the sender has not sent any weather packets the latest 10 day(s).
| Time | Temp. | Humidity | Pressure | Rain* | Wind** | Luminosity | Snow |
|---|---|---|---|---|---|---|---|
| 1778100968 | 23.89° C | 96% | 1009.2 hPa | 0 mm | - | 225 W/m² | - |
| 1778100663 | 23.89° C | 96% | 1009.4 hPa | 0 mm | - | 258 W/m² | - |
| 1778100361 | 23.33° C | 97% | 1009.5 hPa | 0 mm | - | 242 W/m² | - |
| 1778100058 | 23.89° C | 97% | 1010.1 hPa | 0 mm | - | 38 W/m² | - |
| 1778099756 | 23.89° C | 96% | 1010.6 hPa | 0 mm | - | 55 W/m² | - |
| 1778099452 | 24.44° C | 96% | 1010.7 hPa | 0 mm | - | 67 W/m² | - |
| 1778099150 | 25° C | 94% | 1009.9 hPa | 0 mm | - | 185 W/m² | - |
| 1778098846 | 25° C | 97% | 1010.1 hPa | 0 mm | - | 89 W/m² | - |
| 1778098544 | 25.56° C | 96% | 1010.4 hPa | 0 mm | - | 118 W/m² | - |
| 1778098240 | 25.56° C | 96% | 1010.3 hPa | 0 mm | - | 118 W/m² | - |
| 1778097936 | 25.56° C | 95% | 1010.1 hPa | 0 mm | - | 144 W/m² | - |
| 1778097633 | 25.56° C | 94% | 1009.6 hPa | 0 mm | - | 258 W/m² | - |
| 1778097330 | 25.56° C | 95% | 1009.7 hPa | 0 mm | - | 216 W/m² | - |
| 1778097027 | 25.56° C | 95% | 1009.8 hPa | 0 mm | - | 177 W/m² | - |
| 1778096725 | 26.11° C | 94% | 1010.1 hPa | 0 mm | - | 232 W/m² | - |
| 1778096421 | 26.11° C | 94% | 1010.1 hPa | 0 mm | - | 315 W/m² | - |
| 1778096118 | 25.56° C | 95% | 1009.8 hPa | 0 mm | - | 354 W/m² | - |
| 1778095815 | 25.56° C | 96% | 1010.4 hPa | 0 mm | - | 242 W/m² | - |
| 1778095512 | 25.56° C | 96% | 1010.4 hPa | 0 mm | - | 128 W/m² | - |
| 1778095208 | 26.11° C | 94% | 1010.4 hPa | 0 mm | - | 102 W/m² | - |
| 1778094904 | 26.67° C | 93% | 1010.3 hPa | 0 mm | - | 55 W/m² | - |
| 1778094601 | 26.67° C | 91% | 1010.2 hPa | 0 mm | - | 115 W/m² | - |
| 1778094298 | 26.67° C | 91% | 1010.4 hPa | 0 mm | - | 77 W/m² | - |
| 1778093994 | 27.22° C | 90% | 1010.6 hPa | 0 mm | - | 134 W/m² | - |
| 1778093691 | 27.22° C | 90% | 1010.9 hPa | 0 mm | - | 148 W/m² | - |
* Rain latest hour (hover to see other rain measurements)
** Current wind speed in m/s (hover to see current wind gust speed)